createdAt,value
2018-09-29T00:01:10.371Z,51.40
2018-09-29T00:03:13.407Z,51.40
2018-09-29T00:05:16.676Z,51.30
2018-09-29T00:07:20.431Z,51.30
2018-09-29T00:09:24.121Z,51.30
2018-09-29T00:11:27.919Z,51.20
2018-09-29T00:13:31.137Z,51.20
2018-09-29T00:15:38.173Z,51.10
2018-09-29T00:17:44.195Z,51.10
2018-09-29T00:19:47.744Z,51.10
2018-09-29T00:21:51.033Z,51.10
2018-09-29T00:23:54.326Z,51.10
2018-09-29T00:25:57.864Z,51.10
2018-09-29T00:28:01.920Z,51.10
2018-09-29T00:30:04.937Z,51.10
2018-09-29T00:32:08.676Z,51.30
2018-09-29T00:34:11.848Z,51.00
2018-09-29T00:36:15.547Z,51.00
2018-09-29T00:38:19.417Z,51.00
2018-09-29T00:40:24.056Z,51.00
2018-09-29T00:42:27.880Z,51.00
2018-09-29T00:44:31.552Z,51.00
2018-09-29T00:46:34.466Z,51.00
2018-09-29T00:48:37.387Z,50.90
2018-09-29T00:50:40.315Z,50.80
2018-09-29T00:52:43.228Z,50.90
2018-09-29T00:54:46.177Z,50.90
2018-09-29T00:56:49.100Z,50.90
2018-09-29T00:58:52.018Z,50.90
2018-09-29T01:00:55.770Z,50.90
2018-09-29T01:02:58.694Z,50.90
2018-09-29T01:05:01.612Z,50.90
2018-09-29T01:07:04.552Z,50.90
2018-09-29T01:09:07.526Z,50.90
2018-09-29T01:11:10.660Z,51.00
2018-09-29T01:13:14.332Z,51.00
2018-09-29T01:15:17.259Z,50.90
2018-09-29T01:17:20.844Z,50.90
2018-09-29T01:19:24.249Z,51.00
2018-09-29T01:21:27.113Z,51.00
2018-09-29T01:23:30.150Z,51.00
2018-09-29T01:25:33.024Z,51.00
2018-09-29T01:27:35.913Z,51.00
2018-09-29T01:29:38.825Z,51.00
2018-09-29T01:31:42.493Z,51.20
2018-09-29T01:33:45.478Z,51.00
2018-09-29T01:35:49.872Z,51.10
2018-09-29T01:37:52.744Z,51.10
2018-09-29T01:39:55.739Z,51.10
2018-09-29T01:41:58.617Z,51.10
2018-09-29T01:44:01.489Z,51.20
2018-09-29T01:46:05.049Z,51.20
2018-09-29T01:48:09.229Z,51.10
2018-09-29T01:50:12.153Z,51.10
2018-09-29T01:52:15.067Z,51.10
2018-09-29T01:54:17.988Z,51.10
2018-09-29T01:56:21.640Z,51.20
2018-09-29T01:58:24.585Z,51.10
2018-09-29T02:00:28.960Z,51.10
2018-09-29T02:02:33.666Z,51.10
2018-09-29T02:04:36.671Z,51.10
2018-09-29T02:06:39.656Z,51.10
2018-09-29T02:08:42.644Z,51.10
2018-09-29T02:10:46.305Z,51.10
2018-09-29T02:12:49.173Z,51.10
2018-09-29T02:14:52.492Z,51.10
2018-09-29T02:16:55.392Z,51.10
2018-09-29T02:18:59.806Z,51.20
2018-09-29T02:21:02.800Z,51.10
2018-09-29T02:23:06.481Z,51.20
2018-09-29T02:25:09.351Z,51.10
2018-09-29T02:27:12.216Z,51.20
2018-09-29T02:29:15.121Z,51.20
2018-09-29T02:31:17.984Z,51.30
2018-09-29T02:33:21.118Z,51.30
2018-09-29T02:35:24.808Z,51.30
2018-09-29T02:37:27.749Z,51.30
2018-09-29T02:39:30.643Z,51.30
2018-09-29T02:41:33.537Z,51.30
2018-09-29T02:43:36.412Z,51.30
2018-09-29T02:45:39.401Z,51.30
2018-09-29T02:47:42.381Z,51.30
2018-09-29T02:49:45.276Z,51.40
2018-09-29T02:51:48.244Z,51.50
2018-09-29T02:53:51.333Z,51.50
2018-09-29T02:55:54.207Z,51.50
2018-09-29T02:57:57.080Z,51.60
2018-09-29T03:00:00.220Z,51.70
2018-09-29T03:02:03.861Z,51.70
2018-09-29T03:04:06.736Z,51.70
2018-09-29T03:06:09.745Z,51.60
2018-09-29T03:08:12.616Z,51.60
2018-09-29T03:10:15.517Z,51.70
2018-09-29T03:12:20.024Z,51.70
2018-09-29T03:14:22.896Z,51.70
2018-09-29T03:16:26.205Z,51.70
2018-09-29T03:18:29.629Z,51.70
2018-09-29T03:20:33.303Z,51.90
2018-09-29T03:22:36.164Z,51.70
2018-09-29T03:24:39.065Z,51.90
2018-09-29T03:26:41.935Z,52.00
2018-09-29T03:28:44.979Z,52.00
2018-09-29T03:30:48.624Z,52.00
2018-09-29T03:32:52.272Z,52.40
2018-09-29T03:34:55.204Z,52.10
2018-09-29T03:36:58.996Z,52.20
2018-09-29T03:39:03.393Z,52.30
2018-09-29T03:41:06.680Z,52.20
2018-09-29T03:43:09.623Z,52.20
2018-09-29T03:45:12.800Z,52.30
2018-09-29T03:47:16.180Z,52.30
2018-09-29T03:49:19.960Z,52.50
2018-09-29T03:51:22.831Z,52.40
2018-09-29T03:53:25.770Z,52.50
2018-09-29T03:55:30.170Z,52.50
2018-09-29T03:57:33.817Z,52.60
2018-09-29T03:59:36.765Z,52.50
2018-09-29T04:01:40.430Z,52.80
2018-09-29T04:03:44.595Z,52.80
2018-09-29T04:05:47.482Z,52.70
2018-09-29T04:07:51.392Z,52.90
2018-09-29T04:09:54.278Z,52.90
2018-09-29T04:11:57.202Z,53.00
2018-09-29T04:14:01.055Z,53.10
2018-09-29T04:16:03.857Z,53.00
2018-09-29T04:18:06.737Z,53.10
2018-09-29T04:20:09.855Z,54.00
2018-09-29T04:22:13.525Z,54.10
2018-09-29T04:24:16.514Z,54.00
2018-09-29T04:26:19.410Z,54.10
2018-09-29T04:28:23.088Z,54.20
2018-09-29T04:30:25.964Z,54.10
2018-09-29T04:32:29.700Z,54.20
2018-09-29T04:34:33.350Z,54.20
2018-09-29T04:36:36.452Z,54.10
2018-09-29T04:38:39.448Z,54.20
2018-09-29T04:40:42.324Z,54.30
2018-09-29T04:42:45.196Z,54.30
2018-09-29T04:44:48.494Z,54.40
2018-09-29T04:46:52.001Z,54.50
2018-09-29T04:48:55.665Z,55.30
2018-09-29T04:50:58.569Z,54.60
2018-09-29T04:53:01.449Z,54.60
2018-09-29T04:55:04.338Z,54.70
2018-09-29T04:57:07.224Z,54.70
2018-09-29T04:59:10.163Z,54.80
2018-09-29T05:01:13.953Z,54.80
2018-09-29T05:03:16.857Z,55.00
2018-09-29T05:05:19.720Z,55.00
2018-09-29T05:07:22.589Z,55.00
2018-09-29T05:09:26.432Z,55.00
2018-09-29T05:11:29.721Z,55.10
2018-09-29T05:13:32.623Z,55.10
2018-09-29T05:15:36.288Z,55.20
2018-09-29T05:17:39.198Z,55.20
2018-09-29T05:19:42.093Z,55.20
2018-09-29T05:21:45.774Z,55.40
2018-09-29T05:23:48.644Z,55.30
2018-09-29T05:25:51.525Z,55.40
2018-09-29T05:27:54.432Z,55.50
2018-09-29T05:29:58.084Z,55.50
2018-09-29T05:32:00.952Z,55.50
2018-09-29T05:34:03.849Z,55.50
2018-09-29T05:36:06.717Z,55.50
2018-09-29T05:38:09.593Z,55.50
2018-09-29T05:40:12.722Z,55.50
2018-09-29T05:42:15.644Z,55.60
2018-09-29T05:44:19.264Z,55.70
2018-09-29T05:46:22.156Z,55.70
2018-09-29T05:48:25.832Z,55.80
2018-09-29T05:50:28.717Z,55.80
2018-09-29T05:52:31.616Z,55.80
2018-09-29T05:54:35.297Z,55.90
2018-09-29T05:56:38.229Z,56.00
2018-09-29T05:58:43.093Z,56.10
2018-09-29T06:00:46.720Z,56.10
2018-09-29T06:02:49.641Z,56.10
2018-09-29T06:04:52.713Z,56.20
2018-09-29T06:06:55.592Z,56.30
2018-09-29T06:08:58.465Z,56.30
2018-09-29T06:11:01.368Z,56.30
2018-09-29T06:13:05.072Z,56.50
2018-09-29T06:15:08.049Z,56.40
2018-09-29T06:17:11.072Z,56.50
2018-09-29T06:19:15.749Z,57.00
2018-09-29T06:21:18.612Z,56.60
2018-09-29T06:23:21.641Z,56.80
2018-09-29T06:25:24.738Z,56.90
2018-09-29T06:27:27.607Z,57.00
2018-09-29T06:29:31.252Z,57.30
2018-09-29T06:31:34.179Z,57.20
2018-09-29T06:33:37.817Z,58.20
2018-09-29T06:35:40.836Z,57.40
2018-09-29T06:37:43.724Z,57.50
2018-09-29T06:39:46.645Z,57.60
2018-09-29T06:41:50.405Z,57.70
2018-09-29T06:43:53.304Z,57.60
2018-09-29T06:45:57.693Z,57.70
2018-09-29T06:48:00.702Z,57.60
2018-09-29T06:50:04.288Z,57.70
2018-09-29T06:52:08.684Z,57.70
2018-09-29T06:54:11.575Z,57.70
2018-09-29T06:56:14.973Z,57.70
2018-09-29T06:58:18.101Z,57.70
2018-09-29T07:00:21.764Z,57.90
2018-09-29T07:02:24.634Z,57.90
2018-09-29T07:04:27.700Z,57.90
2018-09-29T07:06:30.588Z,57.90
2018-09-29T07:08:34.345Z,57.90
2018-09-29T07:10:37.985Z,57.80
2018-09-29T07:12:40.888Z,57.80
2018-09-29T07:14:44.380Z,56.90
2018-09-29T07:16:47.409Z,56.80
2018-09-29T07:18:51.915Z,56.70
2018-09-29T07:20:55.489Z,56.70
2018-09-29T07:22:58.728Z,56.50
2018-09-29T07:25:01.805Z,56.50
2018-09-29T07:27:04.684Z,56.40
2018-09-29T07:29:07.633Z,56.40
2018-09-29T07:31:11.315Z,56.30
2018-09-29T07:33:14.242Z,56.20
2018-09-29T07:35:18.065Z,56.20
2018-09-29T07:37:20.980Z,56.10
2018-09-29T07:39:23.872Z,56.00
2018-09-29T07:41:26.753Z,55.90
2018-09-29T07:43:29.737Z,55.80
2018-09-29T07:45:32.838Z,55.70
2018-09-29T07:47:36.480Z,55.60
2018-09-29T07:49:39.374Z,55.50
2018-09-29T07:51:43.004Z,55.50
2018-09-29T07:53:46.673Z,55.40
2018-09-29T07:55:49.627Z,55.30
2018-09-29T07:57:52.595Z,55.30
2018-09-29T07:59:56.043Z,55.30
2018-09-29T08:01:59.146Z,54.70
2018-09-29T08:04:02.060Z,55.00
2018-09-29T08:06:04.896Z,55.00
2018-09-29T08:08:07.894Z,54.90
2018-09-29T08:10:10.763Z,54.80
2018-09-29T08:12:13.679Z,54.70
2018-09-29T08:14:17.329Z,54.50
2018-09-29T08:16:20.199Z,54.50
2018-09-29T08:18:23.347Z,54.50
2018-09-29T08:20:26.989Z,54.40
2018-09-29T08:22:29.882Z,54.20
2018-09-29T08:24:32.762Z,54.20
2018-09-29T08:26:35.688Z,54.00
2018-09-29T08:28:38.528Z,54.00
2018-09-29T08:30:41.409Z,53.90
2018-09-29T08:32:44.393Z,53.80
2018-09-29T08:34:47.785Z,53.70
2018-09-29T08:36:50.795Z,53.60
2018-09-29T08:38:54.486Z,53.50
2018-09-29T08:40:57.391Z,53.40
2018-09-29T08:43:01.026Z,53.30
2018-09-29T08:45:03.937Z,53.30
2018-09-29T08:47:07.018Z,53.30
2018-09-29T08:49:10.019Z,53.20
2018-09-29T08:51:12.899Z,53.20
2018-09-29T08:53:16.580Z,53.00
2018-09-29T08:55:19.566Z,53.00
2018-09-29T08:57:22.436Z,52.90
2018-09-29T08:59:25.428Z,52.90
2018-09-29T09:01:28.513Z,52.80
2018-09-29T09:03:31.512Z,52.70
2018-09-29T09:05:36.059Z,52.60
2018-09-29T09:07:39.710Z,52.60
2018-09-29T09:09:42.599Z,52.50
2018-09-29T09:11:45.474Z,52.50
2018-09-29T09:13:48.485Z,52.50
2018-09-29T09:15:51.453Z,52.50
2018-09-29T09:17:54.421Z,52.30
2018-09-29T09:19:57.295Z,52.30
2018-09-29T09:22:00.169Z,52.10
2018-09-29T09:24:03.238Z,52.10
2018-09-29T09:26:06.837Z,51.90
2018-09-29T09:28:09.720Z,51.80
2018-09-29T09:30:12.679Z,51.80
2018-09-29T09:32:15.528Z,51.80
2018-09-29T09:34:19.203Z,51.70
2018-09-29T09:36:22.243Z,51.70
2018-09-29T09:38:25.128Z,51.50
2018-09-29T09:40:28.517Z,51.30
2018-09-29T09:42:31.781Z,51.30
2018-09-29T09:44:35.436Z,51.70
2018-09-29T09:46:38.737Z,51.00
2018-09-29T09:48:41.724Z,50.80
2018-09-29T09:50:44.616Z,50.70
2018-09-29T09:52:48.901Z,50.70
2018-09-29T09:54:52.296Z,50.60
2018-09-29T09:56:55.341Z,50.70
2018-09-29T09:58:59.003Z,50.70
2018-09-29T10:01:03.430Z,50.60
2018-09-29T10:03:07.072Z,50.80
2018-09-29T10:05:09.945Z,50.40
2018-09-29T10:07:12.852Z,50.50
2018-09-29T10:09:15.766Z,50.40
2018-09-29T10:11:18.649Z,49.90
2018-09-29T10:13:21.569Z,49.40
2018-09-29T10:15:24.860Z,49.10
2018-09-29T10:17:27.856Z,49.30
2018-09-29T10:19:30.693Z,49.10
2018-09-29T10:21:34.346Z,48.90
2018-09-29T10:23:37.225Z,48.70
2018-09-29T10:25:40.239Z,48.70
2018-09-29T10:27:43.189Z,48.80
2018-09-29T10:29:46.010Z,48.60
2018-09-29T10:31:49.803Z,47.80
2018-09-29T10:33:52.677Z,47.80
2018-09-29T10:35:55.558Z,47.60
2018-09-29T10:37:58.560Z,47.40
2018-09-29T10:40:01.455Z,47.10
2018-09-29T10:42:05.090Z,46.70
2018-09-29T10:44:08.049Z,46.60
2018-09-29T10:46:11.657Z,46.60
2018-09-29T10:48:14.630Z,46.30
2018-09-29T10:50:18.389Z,45.80
2018-09-29T10:52:21.389Z,45.70
2018-09-29T10:54:24.252Z,45.80
2018-09-29T10:56:27.278Z,45.80
2018-09-29T10:58:30.916Z,45.90
2018-09-29T11:00:33.858Z,45.80
2018-09-29T11:02:37.678Z,45.80
2018-09-29T11:04:40.503Z,45.10
2018-09-29T11:06:44.893Z,44.70
2018-09-29T11:08:47.808Z,44.70
2018-09-29T11:10:51.460Z,44.70
2018-09-29T11:12:54.629Z,44.60
2018-09-29T11:14:57.720Z,44.80
2018-09-29T11:17:01.373Z,44.80
2018-09-29T11:19:04.786Z,44.50
2018-09-29T11:21:08.568Z,44.30
2018-09-29T11:23:12.826Z,44.10
2018-09-29T11:25:15.975Z,44.20
2018-09-29T11:27:18.923Z,44.00
2018-09-29T11:29:21.784Z,43.70
2018-09-29T11:31:24.688Z,43.40
2018-09-29T11:33:27.604Z,43.40
2018-09-29T11:35:31.253Z,43.20
2018-09-29T11:37:34.261Z,43.10
2018-09-29T11:39:37.271Z,43.00
2018-09-29T11:41:41.663Z,42.70
2018-09-29T11:43:44.559Z,42.70
2018-09-29T11:45:47.444Z,42.60
2018-09-29T11:47:51.094Z,42.60
2018-09-29T11:49:53.964Z,42.30
2018-09-29T11:51:56.871Z,42.40
2018-09-29T11:53:59.751Z,42.20
2018-09-29T11:56:02.667Z,42.30
2018-09-29T11:58:05.841Z,42.70
2018-09-29T12:00:08.733Z,42.60
2018-09-29T12:02:12.396Z,42.30
2018-09-29T12:04:15.707Z,42.00
2018-09-29T12:06:18.587Z,42.30
2018-09-29T12:08:21.507Z,42.30
2018-09-29T12:10:24.417Z,41.90
2018-09-29T12:12:27.292Z,41.90
2018-09-29T12:14:30.181Z,41.90
2018-09-29T12:16:33.201Z,42.10
2018-09-29T12:18:36.082Z,41.90
2018-09-29T12:20:38.957Z,42.00
2018-09-29T12:22:41.969Z,41.70
2018-09-29T12:24:44.932Z,41.80
2018-09-29T12:26:47.912Z,41.90
2018-09-29T12:28:50.936Z,42.00
2018-09-29T12:30:53.885Z,42.10
2018-09-29T12:32:58.292Z,41.60
2018-09-29T12:35:01.200Z,41.60
2018-09-29T12:37:05.006Z,41.70
2018-09-29T12:39:07.760Z,41.50
2018-09-29T12:41:12.272Z,41.60
2018-09-29T12:43:15.165Z,41.60
2018-09-29T12:45:19.536Z,41.00
2018-09-29T12:47:22.475Z,40.90
2018-09-29T12:51:35.249Z,39.80
2018-09-29T12:53:38.072Z,39.70
2018-09-29T12:55:42.456Z,40.20
2018-09-29T12:57:45.340Z,40.10
2018-09-29T12:59:48.237Z,39.90
2018-09-29T13:01:51.136Z,39.20
2018-09-29T13:03:54.776Z,39.20
2018-09-29T13:05:57.806Z,39.00
2018-09-29T13:08:00.671Z,39.00
2018-09-29T13:10:03.537Z,39.50
2018-09-29T13:12:06.944Z,38.80
2018-09-29T13:14:09.834Z,38.90
2018-09-29T13:16:14.229Z,38.70
2018-09-29T13:18:17.543Z,38.60
2018-09-29T13:20:20.417Z,39.90
2018-09-29T13:22:23.404Z,41.80
2018-09-29T13:24:26.397Z,42.90
2018-09-29T13:26:31.088Z,43.20
2018-09-29T13:28:34.106Z,43.20
2018-09-29T13:30:39.036Z,43.50
2018-09-29T13:32:41.917Z,43.50
2018-09-29T13:34:46.293Z,43.10
2018-09-29T13:36:49.201Z,43.00
2018-09-29T13:38:52.072Z,42.70
2018-09-29T13:40:54.973Z,42.60
2018-09-29T13:42:58.052Z,42.50
2018-09-29T13:45:00.932Z,42.30
2018-09-29T13:47:03.792Z,42.20
2018-09-29T13:49:06.700Z,41.20
2018-09-29T13:51:09.575Z,40.50
2018-09-29T13:53:12.453Z,40.70
2018-09-29T13:55:15.433Z,40.60
2018-09-29T13:57:18.456Z,40.30
2018-09-29T13:59:22.113Z,39.50
2018-09-29T14:01:25.197Z,39.30
2018-09-29T14:03:28.080Z,39.00
2018-09-29T14:05:30.945Z,38.50
2018-09-29T14:07:33.936Z,38.10
2018-09-29T14:09:37.421Z,37.60
2018-09-29T14:11:40.727Z,37.10
2018-09-29T14:13:43.620Z,36.60
2018-09-29T14:15:46.493Z,36.00
2018-09-29T14:17:49.360Z,35.60
2018-09-29T14:19:52.268Z,35.60
2018-09-29T14:21:55.330Z,35.40
2018-09-29T14:23:58.212Z,35.10
2018-09-29T14:26:01.124Z,34.50
2018-09-29T14:28:03.989Z,34.30
2018-09-29T14:30:07.025Z,34.70
2018-09-29T14:32:10.764Z,33.90
2018-09-29T14:34:13.653Z,33.80
2018-09-29T14:36:16.534Z,33.80
2018-09-29T14:38:19.617Z,34.80
2018-09-29T14:40:22.502Z,35.30
2018-09-29T14:42:26.144Z,35.10
2018-09-29T14:44:29.040Z,35.00
2018-09-29T14:46:32.188Z,35.00
2018-09-29T14:48:35.853Z,35.20
2018-09-29T14:50:39.567Z,35.50
2018-09-29T14:52:42.428Z,35.50
2018-09-29T14:54:45.296Z,35.80
2018-09-29T14:56:48.193Z,36.70
2018-09-29T14:58:51.078Z,37.70
2018-09-29T15:00:54.005Z,37.90
2018-09-29T15:02:58.372Z,37.30
2018-09-29T15:05:01.261Z,37.20
2018-09-29T15:07:04.237Z,38.20
2018-09-29T15:09:07.145Z,38.80
2018-09-29T15:11:10.790Z,38.00
2018-09-29T15:13:13.709Z,37.30
2018-09-29T15:15:16.609Z,36.90
2018-09-29T15:17:21.222Z,37.70
2018-09-29T15:19:24.897Z,37.10
2018-09-29T15:21:27.801Z,37.00
2018-09-29T15:23:31.501Z,38.30
2018-09-29T15:25:35.188Z,39.40
2018-09-29T15:27:38.205Z,38.60
2018-09-29T15:29:41.133Z,39.00
2018-09-29T15:31:44.001Z,39.80
2018-09-29T15:33:46.905Z,38.90
2018-09-29T15:35:49.777Z,37.90
2018-09-29T15:37:52.740Z,37.30
2018-09-29T15:39:56.180Z,37.30
2018-09-29T15:41:59.264Z,38.20
2018-09-29T15:44:03.640Z,38.10
2018-09-29T15:46:06.561Z,38.10
2018-09-29T15:48:10.952Z,39.70
2018-09-29T15:50:13.891Z,39.60
2018-09-29T15:52:17.553Z,40.20
2018-09-29T15:54:20.420Z,40.10
2018-09-29T15:56:23.353Z,40.00
2018-09-29T15:58:27.725Z,41.00
2018-09-29T16:00:30.597Z,40.60
2018-09-29T16:02:34.272Z,41.40
2018-09-29T16:04:38.113Z,40.90
2018-09-29T16:06:40.993Z,39.90
2018-09-29T16:08:43.862Z,40.10
2018-09-29T16:10:46.957Z,39.90
2018-09-29T16:12:49.841Z,39.50
2018-09-29T16:14:52.711Z,39.20
2018-09-29T16:16:56.416Z,39.50
2018-09-29T16:18:59.296Z,40.00
2018-09-29T16:21:02.180Z,40.50
2018-09-29T16:23:05.307Z,40.60
2018-09-29T16:25:08.937Z,39.00
2018-09-29T16:27:11.850Z,38.90
2018-09-29T16:29:14.739Z,39.30
2018-09-29T16:31:17.621Z,39.50
2018-09-29T16:33:20.498Z,39.60
2018-09-29T16:35:24.396Z,38.40
2018-09-29T16:37:27.278Z,39.00
2018-09-29T16:39:30.154Z,39.60
2018-09-29T16:41:33.067Z,40.30
2018-09-29T16:43:36.792Z,40.90
2018-09-29T16:45:39.678Z,41.50
2018-09-29T16:47:43.360Z,41.20
2018-09-29T16:49:46.981Z,41.10
2018-09-29T16:51:49.888Z,41.00
2018-09-29T16:53:52.881Z,40.80
2018-09-29T16:55:55.757Z,40.60
2018-09-29T16:57:58.624Z,40.80
2018-09-29T17:00:01.530Z,41.20
2018-09-29T17:02:06.580Z,41.80
2018-09-29T17:04:10.795Z,41.80
2018-09-29T17:06:14.464Z,41.40
2018-09-29T17:08:17.394Z,41.30
2018-09-29T17:10:21.784Z,40.90
2018-09-29T17:12:25.457Z,41.10
2018-09-29T17:14:28.372Z,41.10
2018-09-29T17:16:32.006Z,41.10
2018-09-29T17:18:34.909Z,40.90
2018-09-29T17:20:37.784Z,40.10
2018-09-29T17:22:40.658Z,39.70
2018-09-29T17:24:43.632Z,39.90
2018-09-29T17:26:46.499Z,40.50
2018-09-29T17:28:49.392Z,40.80
2018-09-29T17:30:52.329Z,40.90
2018-09-29T17:32:55.211Z,40.70
2018-09-29T17:34:58.092Z,40.80
2018-09-29T17:37:01.916Z,41.10
2018-09-29T17:39:05.549Z,40.60
2018-09-29T17:41:08.492Z,40.60
2018-09-29T17:43:11.404Z,40.10
2018-09-29T17:45:14.350Z,40.00
2018-09-29T17:47:17.277Z,40.30
2018-09-29T17:49:20.151Z,40.40
2018-09-29T17:51:23.066Z,40.40
2018-09-29T17:53:25.952Z,40.50
2018-09-29T17:55:29.094Z,40.20
2018-09-29T17:57:32.441Z,40.20
2018-09-29T17:59:36.837Z,40.80
2018-09-29T18:01:39.727Z,40.80
2018-09-29T18:03:43.601Z,41.50
2018-09-29T18:05:46.937Z,40.80
2018-09-29T18:07:50.598Z,40.90
2018-09-29T18:09:53.595Z,40.90
2018-09-29T18:11:56.631Z,41.10
2018-09-29T18:14:00.277Z,41.30
2018-09-29T18:16:03.156Z,41.30
2018-09-29T18:18:06.053Z,41.20
2018-09-29T18:20:09.701Z,41.60
2018-09-29T18:22:12.764Z,40.90
2018-09-29T18:24:16.381Z,40.90
2018-09-29T18:26:19.250Z,40.80
2018-09-29T18:28:22.183Z,41.20
2018-09-29T18:30:25.348Z,41.40
2018-09-29T18:32:28.293Z,41.20
2018-09-29T18:34:31.973Z,41.40
2018-09-29T18:36:35.609Z,41.50
2018-09-29T18:38:38.484Z,41.40
2018-09-29T18:40:41.426Z,41.50
2018-09-29T18:42:45.074Z,42.20
2018-09-29T18:44:48.057Z,41.90
2018-09-29T18:46:50.974Z,41.80
2018-09-29T18:48:53.911Z,41.70
2018-09-29T18:50:56.746Z,41.70
2018-09-29T18:52:59.636Z,41.70
2018-09-29T18:55:03.324Z,42.00
2018-09-29T18:57:06.211Z,41.80
2018-09-29T18:59:09.185Z,41.80
2018-09-29T19:01:12.069Z,41.80
2018-09-29T19:03:15.862Z,42.10
2018-09-29T19:05:18.736Z,42.10
2018-09-29T19:07:22.032Z,42.30
2018-09-29T19:09:24.996Z,42.70
2018-09-29T19:11:27.978Z,43.00
2018-09-29T19:13:31.675Z,43.50
2018-09-29T19:15:34.577Z,43.50
2018-09-29T19:17:37.441Z,43.50
2018-09-29T19:19:41.205Z,43.50
2018-09-29T19:21:45.481Z,43.50
2018-09-29T19:23:49.877Z,43.40
2018-09-29T19:25:52.779Z,43.40
2018-09-29T19:27:55.798Z,43.20
2018-09-29T19:29:59.415Z,43.20
2018-09-29T19:32:02.360Z,43.10
2018-09-29T19:34:05.218Z,43.20
2018-09-29T19:36:08.112Z,43.40
2018-09-29T19:38:11.804Z,43.90
2018-09-29T19:40:14.667Z,43.60
2018-09-29T19:42:17.933Z,43.70
2018-09-29T19:44:21.258Z,43.70
2018-09-29T19:46:24.181Z,43.70
2018-09-29T19:48:27.048Z,43.70
2018-09-29T19:50:31.104Z,43.70
2018-09-29T19:52:33.992Z,43.60
2018-09-29T19:54:36.877Z,43.70
2018-09-29T19:56:39.775Z,43.80
2018-09-29T19:58:42.668Z,43.80
2018-09-29T20:00:45.556Z,43.90
2018-09-29T20:02:48.496Z,43.90
2018-09-29T20:04:51.401Z,43.90
2018-09-29T20:06:54.491Z,43.90
2018-09-29T20:08:57.472Z,44.00
2018-09-29T20:11:00.351Z,44.10
2018-09-29T20:13:03.328Z,44.10
2018-09-29T20:15:06.228Z,44.20
2018-09-29T20:17:10.526Z,45.10
2018-09-29T20:19:14.932Z,44.20
2018-09-29T20:21:17.808Z,44.20
2018-09-29T20:23:20.692Z,44.10
2018-09-29T20:25:23.598Z,44.10
2018-09-29T20:27:27.359Z,44.40
2018-09-29T20:29:30.241Z,44.30
2018-09-29T20:31:33.268Z,44.40
2018-09-29T20:33:36.919Z,44.60
2018-09-29T20:35:39.812Z,44.50
2018-09-29T20:37:42.712Z,44.40
2018-09-29T20:39:45.696Z,44.50
2018-09-29T20:41:48.676Z,44.40
2018-09-29T20:43:51.613Z,44.60
2018-09-29T20:45:54.793Z,44.60
2018-09-29T20:47:57.695Z,44.60
2018-09-29T20:50:00.884Z,44.70
2018-09-29T20:52:03.800Z,44.70
2018-09-29T20:54:06.700Z,44.80
2018-09-29T20:56:11.096Z,44.70
2018-09-29T20:58:14.119Z,44.70
2018-09-29T21:00:17.873Z,44.90
2018-09-29T21:02:20.752Z,44.70
2018-09-29T21:04:23.736Z,44.80
2018-09-29T21:06:26.624Z,44.80
2018-09-29T21:08:29.608Z,44.90
2018-09-29T21:10:32.595Z,45.00
2018-09-29T21:12:35.476Z,45.10
2018-09-29T21:14:39.133Z,45.30
2018-09-29T21:16:42.054Z,45.20
2018-09-29T21:18:45.041Z,45.30
2018-09-29T21:20:47.916Z,45.30
2018-09-29T21:22:51.025Z,45.30
2018-09-29T21:24:53.937Z,45.40
2018-09-29T21:26:56.813Z,45.40
2018-09-29T21:28:59.749Z,45.30
2018-09-29T21:31:02.633Z,45.40
2018-09-29T21:33:05.609Z,45.30
2018-09-29T21:35:08.480Z,45.40
2018-09-29T21:37:11.361Z,45.30
2018-09-29T21:39:14.291Z,45.40
2018-09-29T21:41:17.944Z,45.50
2018-09-29T21:43:20.822Z,45.50
2018-09-29T21:45:23.812Z,45.50
2018-09-29T21:47:26.689Z,45.40
2018-09-29T21:49:29.564Z,45.40
2018-09-29T21:51:32.561Z,45.30
2018-09-29T21:53:35.429Z,45.20
2018-09-29T21:55:38.301Z,45.20
2018-09-29T21:57:41.208Z,45.40
2018-09-29T21:59:44.128Z,45.40
2018-09-29T22:01:47.161Z,45.50
2018-09-29T22:03:50.055Z,45.60
2018-09-29T22:05:52.924Z,45.60
2018-09-29T22:07:55.829Z,45.70
2018-09-29T22:09:59.508Z,45.80
2018-09-29T22:12:02.406Z,45.70
2018-09-29T22:14:05.349Z,45.80
2018-09-29T22:16:08.228Z,45.80
2018-09-29T22:18:11.115Z,45.90
2018-09-29T22:20:14.056Z,46.00
2018-09-29T22:22:17.667Z,45.70
2018-09-29T22:24:20.696Z,46.20
2018-09-29T22:26:23.695Z,46.30
2018-09-29T22:28:27.352Z,46.70
2018-09-29T22:30:30.256Z,46.60
2018-09-29T22:32:33.288Z,46.70
2018-09-29T22:34:36.908Z,46.90
2018-09-29T22:36:39.816Z,46.90
2018-09-29T22:38:43.412Z,46.80
2018-09-29T22:40:46.292Z,46.80
2018-09-29T22:42:49.188Z,46.80
2018-09-29T22:44:52.840Z,46.80
2018-09-29T22:46:56.683Z,46.70
2018-09-29T22:48:59.780Z,46.70
2018-09-29T22:51:03.884Z,46.60
2018-09-29T22:53:06.778Z,46.40
2018-09-29T22:55:09.725Z,46.50
2018-09-29T22:57:12.605Z,46.50
2018-09-29T22:59:15.501Z,46.50
2018-09-29T23:01:19.886Z,46.40
2018-09-29T23:03:22.791Z,46.40
2018-09-29T23:05:25.694Z,46.30
2018-09-29T23:07:29.342Z,46.20
2018-09-29T23:09:32.265Z,46.20
2018-09-29T23:11:35.968Z,45.90
2018-09-29T23:13:38.831Z,46.10
2018-09-29T23:15:41.707Z,46.00
2018-09-29T23:17:44.620Z,45.90
2018-09-29T23:19:48.256Z,45.80
2018-09-29T23:21:51.135Z,45.70
2018-09-29T23:23:54.073Z,45.70
2018-09-29T23:25:56.948Z,45.60
2018-09-29T23:27:59.833Z,45.50
2018-09-29T23:30:02.728Z,45.40
2018-09-29T23:32:06.379Z,45.30
2018-09-29T23:34:09.284Z,45.20
2018-09-29T23:36:12.152Z,45.20
2018-09-29T23:38:15.052Z,45.10
2018-09-29T23:40:17.941Z,45.00
2018-09-29T23:42:20.802Z,45.00
2018-09-29T23:44:23.768Z,44.80
2018-09-29T23:46:27.073Z,44.70
2018-09-29T23:48:29.963Z,44.70
2018-09-29T23:50:32.828Z,44.60
2018-09-29T23:52:35.868Z,44.50
2018-09-29T23:54:38.792Z,44.40
2018-09-29T23:56:41.688Z,44.50
2018-09-29T23:58:44.580Z,44.40
